Time;durP1;ratioP1;P1;durP2;ratioP2;P2;SDS_P1;SDS_P2;PMS_P1;PMS_P2;Temp;Humidity;BMP_temperature;BMP_pressure;BME280_temperature;BME280_humidity;BME280_pressure;Samples;Min_cycle;Max_cycle;Signal;HPM_P1;HPM_P2
2022/05/20 00:00:34;;;;;;;6.32;3.88;;;;;;;10.73;58.25;96022.78;5021064;28;20040;-75
2022/05/20 00:03:00;;;;;;;10.68;3.75;;;;;;;10.70;58.51;96026.59;5004431;28;20406;-75
2022/05/20 00:05:27;;;;;;;18.33;4.18;;;;;;;10.63;58.46;96025.81;5005053;28;20425;-75
2022/05/20 00:07:53;;;;;;;13.57;3.65;;;;;;;10.59;58.74;96023.84;5020158;28;20056;-75
2022/05/20 00:10:19;;;;;;;4.28;3.08;;;;;;;10.59;58.97;96023.84;5003616;28;20127;-75
2022/05/20 00:12:45;;;;;;;3.97;3.55;;;;;;;10.53;59.15;96017.63;5003208;28;20172;-76
2022/05/20 00:15:12;;;;;;;8.43;4.15;;;;;;;10.50;58.95;96018.03;5021895;28;20157;-75
2022/05/20 00:17:38;;;;;;;10.32;3.28;;;;;;;10.50;59.28;96016.22;5004153;28;20056;-75
2022/05/20 00:20:04;;;;;;;5.03;3.63;;;;;;;10.42;59.11;96015.66;5020769;28;20583;-75
2022/05/20 00:22:29;;;;;;;11.13;4.30;;;;;;;10.45;59.09;96021.25;5021789;28;20045;-75
2022/05/20 00:27:39;;;;;;;4.47;3.50;;;;;;;10.33;59.16;96030.63;5021362;28;20564;-75
2022/05/20 00:30:05;;;;;;;3.85;3.20;;;;;;;10.33;59.67;96027.25;5021070;28;20042;-75
2022/05/20 00:32:30;;;;;;;4.22;3.83;;;;;;;10.37;59.31;96034.44;5021090;28;20041;-75
2022/05/20 00:34:56;;;;;;;8.63;3.80;;;;;;;10.37;59.52;96038.81;5020379;28;20051;-75
2022/05/20 00:37:21;;;;;;;5.53;3.83;;;;;;;10.33;59.61;96043.63;5036625;28;20416;-75
2022/05/20 00:39:46;;;;;;;11.38;3.80;;;;;;;10.30;58.68;96043.25;5019686;28;20413;-75
2022/05/20 00:42:13;;;;;;;12.60;4.10;;;;;;;10.28;59.16;96047.84;5021832;28;20508;-75
2022/05/20 00:44:39;;;;;;;8.93;3.80;;;;;;;10.18;59.24;96049.00;5021755;28;20153;-74
2022/05/20 00:47:04;;;;;;;7.20;3.60;;;;;;;10.08;59.67;96045.16;5053626;23;20061;-75
2022/05/20 00:49:30;;;;;;;4.75;4.22;;;;;;;10.07;59.82;96053.97;5031746;28;20033;-75
2022/05/20 00:51:55;;;;;;;11.63;3.78;;;;;;;10.05;60.57;96045.56;5029927;28;20017;-75
2022/05/20 00:54:26;;;;;;;10.30;4.20;;;;;;;10.04;60.23;96044.78;5030154;28;20398;-75
2022/05/20 00:57:03;;;;;;;4.03;3.33;;;;;;;10.04;60.85;96043.97;5029801;28;20120;-75
2022/05/20 00:59:29;;;;;;;7.88;3.90;;;;;;;9.98;60.57;96044.78;5029853;28;20041;-75
2022/05/20 01:01:55;;;;;;;18.80;3.75;;;;;;;9.93;61.00;96043.56;5029832;28;20063;-75
2022/05/20 01:04:21;;;;;;;24.73;4.22;;;;;;;9.96;60.80;96042.38;5004505;28;20044;-76
2022/05/20 01:06:47;;;;;;;10.00;4.05;;;;;;;9.94;60.91;96049.56;5013360;28;20045;-75
2022/05/20 01:09:12;;;;;;;7.72;3.90;;;;;;;9.92;60.50;96041.97;5029949;28;20029;-75
2022/05/20 01:11:38;;;;;;;5.60;3.95;;;;;;;9.95;61.44;96039.97;5012436;28;20029;-75
2022/05/20 01:14:04;;;;;;;13.00;4.10;;;;;;;9.89;61.36;96038.94;5029599;28;20509;-75
2022/05/20 01:16:30;;;;;;;5.05;3.70;;;;;;;9.91;60.87;96036.94;5029689;28;20021;-75
2022/05/20 01:21:51;;;;;;;12.40;4.07;;;;;;;9.86;61.09;96028.94;5061646;22;20053;-75
2022/05/20 01:24:16;;;;;;;8.60;4.25;;;;;;;9.84;61.94;96029.16;5021364;28;20401;-75
2022/05/20 01:26:41;;;;;;;4.88;4.05;;;;;;;9.85;60.71;96028.16;5021202;28;20045;-75
2022/05/20 01:29:07;;;;;;;18.15;4.57;;;;;;;9.84;61.15;96033.56;5020015;28;20029;-75
2022/05/20 01:31:32;;;;;;;9.80;3.90;;;;;;;9.80;61.56;96027.94;4986458;28;20025;-75
2022/05/20 01:33:58;;;;;;;5.78;3.88;;;;;;;9.75;60.67;96026.91;5018729;28;20065;-75
2022/05/20 01:36:24;;;;;;;9.18;4.35;;;;;;;9.71;60.49;96033.50;5021365;28;20025;-75
2022/05/20 01:38:50;;;;;;;10.95;4.65;;;;;;;9.71;60.94;96031.72;5019329;28;20125;-76
2022/05/20 01:41:25;;;;;;;6.25;3.67;;;;;;;9.72;61.21;96029.91;5018985;28;20100;-75
2022/05/20 01:44:12;;;;;;;6.88;4.10;;;;;;;9.73;61.40;96031.53;5019108;28;20041;-75
2022/05/20 01:47:04;;;;;;;14.77;4.68;;;;;;;9.65;61.89;96034.31;5033871;28;20577;-75
2022/05/20 01:49:45;;;;;;;9.00;4.97;;;;;;;9.54;61.60;96031.28;5010015;28;20536;-76
2022/05/20 01:52:39;;;;;;;5.72;3.72;;;;;;;9.53;61.81;96027.06;5014653;28;20026;-75
2022/05/20 01:55:10;;;;;;;4.75;3.90;;;;;;;9.48;61.90;96033.84;5028017;28;20033;-75
2022/05/20 01:57:51;;;;;;;17.08;4.93;;;;;;;9.46;61.87;96041.84;5019839;28;20034;-75
2022/05/20 02:00:19;;;;;;;8.63;5.25;;;;;;;9.42;61.92;96035.41;5019178;28;20029;-74
2022/05/20 02:03:02;;;;;;;6.32;3.60;;;;;;;9.44;61.83;96035.25;5021619;28;20044;-75
2022/05/20 02:05:33;;;;;;;12.70;4.10;;;;;;;9.39;62.24;96035.00;5024633;28;21167;-74
2022/05/20 02:08:11;;;;;;;7.00;4.18;;;;;;;9.39;62.44;96033.22;5020610;28;20029;-74
2022/05/20 02:10:39;;;;;;;8.68;4.35;;;;;;;9.38;62.03;96041.19;5002192;28;20110;-75
2022/05/20 02:13:05;;;;;;;9.50;4.32;;;;;;;9.40;62.47;96041.81;5003648;28;20037;-74
2022/05/20 02:15:51;;;;;;;23.05;4.57;;;;;;;9.36;62.67;96041.38;5021550;28;20045;-75
2022/05/20 02:18:19;;;;;;;18.52;5.20;;;;;;;9.36;62.72;96045.78;5020078;28;20030;-74
2022/05/20 02:20:48;;;;;;;21.70;5.38;;;;;;;9.31;62.65;96043.78;5005719;28;20029;-75
2022/05/20 02:23:17;;;;;;;24.17;5.70;;;;;;;9.38;62.50;96039.41;5001740;28;20048;-74
2022/05/20 02:25:46;;;;;;;16.20;3.88;;;;;;;9.34;62.45;96048.56;5019534;28;20033;-74
2022/05/20 02:28:18;;;;;;;15.18;4.43;;;;;;;9.32;62.34;96048.78;5018435;28;20029;-75
2022/05/20 02:30:43;;;;;;;19.30;5.13;;;;;;;9.30;62.04;96052.56;5001079;28;20156;-75
2022/05/20 02:33:16;;;;;;;14.82;4.20;;;;;;;9.30;62.43;96052.56;5003049;28;20040;-74
2022/05/20 02:35:42;;;;;;;15.40;4.40;;;;;;;9.30;62.43;96052.56;4986569;28;20045;-75
2022/05/20 02:38:13;;;;;;;11.38;4.18;;;;;;;9.25;62.37;96047.91;5002235;28;20033;-74
2022/05/20 02:40:39;;;;;;;14.43;4.15;;;;;;;9.26;61.82;96048.72;5034820;28;20512;-75
2022/05/20 02:43:04;;;;;;;9.85;3.95;;;;;;;9.27;61.81;96052.91;5003279;28;20124;-74
2022/05/20 02:45:30;;;;;;;8.23;4.25;;;;;;;9.22;62.21;96050.91;5019961;28;20029;-75
2022/05/20 02:47:55;;;;;;;19.15;4.45;;;;;;;9.22;62.51;96045.72;5034716;28;20054;-75
2022/05/20 02:50:21;;;;;;;28.90;5.18;;;;;;;9.25;62.68;96039.34;5001983;28;20374;-75
2022/05/20 02:52:46;;;;;;;8.80;5.32;;;;;;;9.17;62.40;96031.72;5018095;28;20076;-75
2022/05/20 02:55:12;;;;;;;12.57;5.65;;;;;;;9.19;61.83;96034.94;5018467;28;20029;-75
2022/05/20 02:57:37;;;;;;;17.40;6.78;;;;;;;9.18;62.25;96039.31;5001848;28;20038;-75
2022/05/20 03:04:09;;;;;;;22.95;6.93;;;;;;;9.19;62.24;96034.94;5019394;28;20555;-75
2022/05/20 03:05:56;;;;;;;16.60;5.43;;;;;;;9.21;61.94;96033.75;5019059;28;20121;-73
2022/05/20 03:08:22;;;;;;;27.80;6.60;;;;;;;9.22;62.27;96039.72;5019876;28;20068;-73
2022/05/20 03:10:47;;;;;;;26.92;6.25;;;;;;;9.22;61.40;96039.72;5019346;28;20041;-75
2022/05/20 03:13:13;;;;;;;15.18;4.97;;;;;;;9.15;62.13;96041.50;5019186;28;20137;-74
2022/05/20 03:15:39;;;;;;;17.85;8.63;;;;;;;9.20;62.26;96041.72;5019239;28;20032;-74
2022/05/20 03:18:05;;;;;;;20.85;8.43;;;;;;;9.18;62.42;96035.94;5016371;28;20149;-75
2022/05/20 03:20:31;;;;;;;9.50;5.57;;;;;;;9.19;61.87;96045.31;5000981;28;20029;-75
2022/05/20 03:22:56;;;;;;;22.48;6.30;;;;;;;9.22;62.18;96034.53;5001777;28;20060;-74
2022/05/20 03:25:22;;;;;;;20.58;6.43;;;;;;;9.27;62.61;96042.53;5017704;28;20034;-75
2022/05/20 03:27:48;;;;;;;6.75;4.57;;;;;;;9.29;61.46;96035.38;5020969;28;20052;-76
2022/05/20 03:30:13;;;;;;;17.13;4.63;;;;;;;9.30;61.68;96042.97;5021257;28;20034;-75
2022/05/20 03:32:39;;;;;;;7.88;3.67;;;;;;;9.42;61.32;96048.41;5021529;28;20052;-74
2022/05/20 03:35:04;;;;;;;8.05;3.97;;;;;;;9.49;61.06;96049.25;5005327;28;20402;-74
2022/05/20 03:37:30;;;;;;;7.13;3.42;;;;;;;9.59;59.79;96054.03;5004474;28;20100;-73
2022/05/20 03:39:56;;;;;;;7.18;3.35;;;;;;;9.63;59.21;96058.69;5022633;28;20026;-75
2022/05/20 03:42:23;;;;;;;13.68;3.65;;;;;;;9.69;58.72;96062.28;5004455;28;20049;-74
2022/05/20 03:44:48;;;;;;;9.88;3.30;;;;;;;9.73;57.58;96062.69;5019373;28;20145;-74
2022/05/20 03:47:13;;;;;;;6.45;2.95;;;;;;;9.74;57.73;96064.28;5004438;28;20042;-75
2022/05/20 03:49:40;;;;;;;8.52;3.45;;;;;;;9.82;58.04;96066.72;5020662;28;20038;-75
2022/05/20 03:52:06;;;;;;;13.73;5.05;;;;;;;9.86;57.88;96075.72;5020893;28;20693;-76
2022/05/20 03:54:32;;;;;;;22.13;3.70;;;;;;;9.98;58.76;96086.34;5020856;28;20144;-76
2022/05/20 03:56:59;;;;;;;3.38;3.00;;;;;;;10.08;57.66;96084.94;5005050;28;20049;-76
2022/05/20 03:59:25;;;;;;;5.05;3.40;;;;;;;10.19;56.07;96084.38;5004422;28;20477;-76
2022/05/20 04:01:56;;;;;;;5.53;3.78;;;;;;;10.96;55.52;96088.22;5020466;28;20469;-75
2022/05/20 04:04:23;;;;;;;8.23;2.75;;;;;;;13.51;48.45;96087.06;5020662;28;20205;-76
2022/05/20 04:06:48;;;;;;;2.83;2.63;;;;;;;16.02;42.03;96079.59;5002326;28;20402;-75
2022/05/20 04:09:14;;;;;;;4.78;3.20;;;;;;;18.30;36.53;96079.44;5020637;28;20536;-76
2022/05/20 04:11:39;;;;;;;15.68;3.08;;;;;;;20.18;33.09;96072.66;5036131;28;20033;-76
2022/05/20 04:14:04;;;;;;;5.22;2.90;;;;;;;22.13;30.15;96070.28;5034660;23;20210;-76
2022/05/20 04:16:30;;;;;;;11.98;2.78;;;;;;;23.92;27.76;96077.44;5001777;28;20042;-76
2022/05/20 04:18:55;;;;;;;11.85;3.08;;;;;;;25.19;25.82;96066.78;5002793;28;20034;-76
2022/05/20 04:21:21;;;;;;;17.77;3.92;;;;;;;26.86;23.93;96065.16;5030173;23;20041;-75
2022/05/20 04:23:46;;;;;;;17.13;3.88;;;;;;;27.94;21.96;96062.03;5048727;28;20188;-75
2022/05/20 04:26:11;;;;;;;11.43;3.25;;;;;;;28.92;20.35;96057.97;5034009;28;20036;-75
2022/05/20 04:28:37;;;;;;;24.80;3.65;;;;;;;29.80;19.95;96058.16;5032059;28;20463;-75
2022/05/20 04:31:03;;;;;;;25.02;3.22;;;;;;;30.91;18.55;96052.25;5030477;28;20543;-76
2022/05/20 04:33:29;;;;;;;16.10;3.22;;;;;;;31.71;17.79;96053.72;5030125;28;20029;-76
2022/05/20 04:35:54;;;;;;;5.32;3.42;;;;;;;32.56;17.04;96061.72;5030457;28;20083;-76
2022/05/20 04:38:20;;;;;;;9.82;4.00;;;;;;;33.29;15.79;96063.25;5028929;28;20424;-76
2022/05/20 04:46:56;;;;;;;5.93;3.30;;;;;;;33.93;15.17;96065.63;5030508;28;20506;-76
2022/05/20 04:48:59;;;;;;;7.68;2.28;;;;;;;36.18;13.22;96062.44;5044097;28;20048;-76
2022/05/20 04:51:24;;;;;;;10.65;2.63;;;;;;;36.59;13.21;96071.47;5032092;28;20025;-76
2022/05/20 04:56:36;;;;;;;8.77;2.13;;;;;;;38.46;11.97;96080.13;5006373;28;20666;-76
2022/05/20 04:59:03;;;;;;;9.90;2.35;;;;;;;39.02;11.61;96074.88;4997704;28;20029;-76
2022/05/20 05:01:28;;;;;;;6.88;2.35;;;;;;;39.52;11.28;96082.38;5030664;28;20041;-76
2022/05/20 05:03:54;;;;;;;12.18;2.33;;;;;;;40.06;10.93;96077.72;5031261;28;20040;-76
2022/05/20 05:06:19;;;;;;;15.77;1.92;;;;;;;40.47;10.81;96072.56;5012899;28;20362;-76
2022/05/20 05:08:45;;;;;;;8.45;1.83;;;;;;;40.95;10.55;96074.69;5030923;28;20354;-76
2022/05/20 05:11:10;;;;;;;7.53;2.50;;;;;;;41.56;9.77;96081.31;5030406;28;20033;-77
2022/05/20 05:13:36;;;;;;;11.75;2.20;;;;;;;42.00;9.86;96079.81;5031287;28;20042;-77
2022/05/20 05:16:06;;;;;;;5.75;2.25;;;;;;;42.01;9.63;96083.31;5030917;28;20026;-75
2022/05/20 05:18:32;;;;;;;5.95;2.33;;;;;;;42.35;9.47;96080.63;5021619;28;20561;-75
2022/05/20 05:20:58;;;;;;;6.88;2.28;;;;;;;42.89;9.24;96081.53;5030950;28;20037;-75
2022/05/20 05:23:24;;;;;;;3.90;2.67;;;;;;;43.63;8.64;96078.94;5028426;28;20033;-74
2022/05/20 05:25:49;;;;;;;10.02;2.22;;;;;;;44.09;8.24;96078.16;4987920;28;20025;-74
2022/05/20 05:28:15;;;;;;;3.75;1.98;;;;;;;44.50;8.05;96075.06;5029649;28;20390;-74
2022/05/20 05:30:42;;;;;;;4.80;2.05;;;;;;;45.10;7.86;96067.53;5030853;28;20060;-75
2022/05/20 05:33:08;;;;;;;3.30;2.10;;;;;;;45.65;7.71;96073.34;5012916;28;20457;-75
2022/05/20 05:35:33;;;;;;;7.75;2.08;;;;;;;46.11;7.41;96083.16;5020892;28;20109;-75
2022/05/20 05:37:59;;;;;;;8.68;2.33;;;;;;;46.51;6.90;96071.88;5029297;28;20029;-75
2022/05/20 05:40:27;;;;;;;8.00;2.20;;;;;;;46.81;6.74;96068.66;5030652;28;20036;-75
2022/05/20 05:42:54;;;;;;;13.00;2.83;;;;;;;46.92;6.91;96069.09;5012886;28;20120;-75
2022/05/20 05:45:21;;;;;;;13.45;2.22;;;;;;;47.35;6.63;96067.78;5030613;28;20049;-75
2022/05/20 05:47:58;;;;;;;22.13;3.00;;;;;;;47.61;6.27;96067.78;5028580;28;20072;-75
2022/05/20 05:50:23;;;;;;;8.50;2.72;;;;;;;47.59;6.30;96059.97;5030265;28;20102;-75
2022/05/20 05:53:07;;;;;;;10.02;2.00;;;;;;;47.62;6.32;96063.81;5029157;28;20029;-75
2022/05/20 05:55:32;;;;;;;14.77;2.40;;;;;;;47.65;6.44;96062.91;5030545;28;20043;-75
2022/05/20 05:57:58;;;;;;;7.20;2.97;;;;;;;47.61;6.26;96062.28;5028985;28;20037;-77
2022/05/20 06:00:23;;;;;;;14.60;2.50;;;;;;;47.46;6.48;96062.69;5029020;28;20025;-76
2022/05/20 06:02:49;;;;;;;5.93;2.20;;;;;;;47.36;6.49;96063.84;5029036;28;20044;-76
2022/05/20 06:05:15;;;;;;;11.05;2.75;;;;;;;47.51;6.32;96059.41;5028828;28;20040;-76
2022/05/20 06:07:40;;;;;;;3.47;1.60;;;;;;;47.40;6.26;96058.97;5030069;28;20036;-76
2022/05/20 06:10:06;;;;;;;5.63;2.35;;;;;;;47.35;6.15;96056.75;5028542;28;20452;-76
2022/05/20 06:12:33;;;;;;;5.28;2.00;;;;;;;46.72;6.25;96059.47;5012400;28;20409;-76
2022/05/20 06:15:02;;;;;;;8.27;2.65;;;;;;;46.60;6.56;96052.75;5027981;28;20474;-76
2022/05/20 06:17:30;;;;;;;4.65;2.38;;;;;;;46.11;7.17;96050.16;5030071;28;20044;-76
2022/05/20 06:19:55;;;;;;;9.13;3.30;;;;;;;45.53;6.92;96046.50;5030057;28;20037;-76
2022/05/20 06:22:21;;;;;;;8.13;2.70;;;;;;;45.00;7.48;96046.56;5029828;28;20045;-76
2022/05/20 06:24:46;;;;;;;7.93;2.58;;;;;;;43.94;8.26;96043.97;5028192;28;20030;-76
2022/05/20 06:27:11;;;;;;;9.93;2.70;;;;;;;43.74;8.02;96043.91;5028613;28;20037;-75
2022/05/20 06:29:38;;;;;;;9.52;3.05;;;;;;;43.97;7.94;96037.66;5004098;28;20043;-75
2022/05/20 06:32:04;;;;;;;15.05;4.38;;;;;;;43.05;8.68;96040.69;5032075;28;20523;-75
2022/05/20 06:39:48;;;;;;;7.20;3.13;;;;;;;43.37;8.19;96042.94;5015251;28;20033;-76
2022/05/20 06:40:08;;;;;;;16.02;3.35;;;;;;;41.58;9.52;96048.94;5029916;28;20535;-76
2022/05/20 06:42:34;;;;;;;6.45;2.83;;;;;;;41.13;9.41;96041.84;5030306;28;20044;-77
2022/05/20 06:44:59;;;;;;;8.73;3.03;;;;;;;40.41;10.16;96042.22;5012158;28;20385;-76
2022/05/20 06:47:25;;;;;;;12.60;3.08;;;;;;;39.66;10.51;96040.78;5029856;28;20049;-76
2022/05/20 06:49:57;;;;;;;9.75;3.00;;;;;;;38.76;11.03;96041.81;5029623;28;20026;-76
2022/05/20 06:52:23;;;;;;;11.88;3.65;;;;;;;37.82;12.02;96034.34;5042058;28;20033;-76
2022/05/20 06:54:48;;;;;;;8.98;3.28;;;;;;;37.20;12.61;96039.63;5037326;28;20551;-76
2022/05/20 06:57:20;;;;;;;15.05;3.25;;;;;;;36.56;12.56;96045.13;5029775;28;20405;-76
2022/05/20 06:59:45;;;;;;;19.05;3.33;;;;;;;36.21;13.64;96045.44;5028175;28;20133;-76
2022/05/20 07:02:10;;;;;;;13.35;3.40;;;;;;;35.53;13.46;96043.66;5027284;28;20481;-76
2022/05/20 07:04:36;;;;;;;8.07;3.42;;;;;;;34.61;14.10;96032.72;4987863;28;21003;-76
2022/05/20 07:07:04;;;;;;;15.77;3.13;;;;;;;34.12;14.75;96031.69;4994641;28;20417;-75
2022/05/20 07:09:30;;;;;;;11.63;4.05;;;;;;;33.37;15.83;96025.38;5027857;28;20025;-76
2022/05/20 07:11:55;;;;;;;12.65;4.78;;;;;;;32.24;16.51;96028.47;5028165;28;20064;-75
2022/05/20 07:14:21;;;;;;;12.18;4.80;;;;;;;31.28;16.92;96031.66;5028356;28;20022;-77
2022/05/20 07:16:47;;;;;;;22.17;4.22;;;;;;;30.71;17.27;96034.28;5035257;28;20033;-74
2022/05/20 07:19:12;;;;;;;13.52;3.72;;;;;;;30.40;17.61;96034.69;5022943;28;20029;-74
2022/05/20 07:21:38;;;;;;;17.42;3.42;;;;;;;30.05;18.46;96034.19;5029396;28;20037;-75
2022/05/20 07:24:04;;;;;;;10.05;3.33;;;;;;;29.91;18.97;96036.31;5029091;28;20033;-76
2022/05/20 07:26:30;;;;;;;9.43;3.92;;;;;;;29.82;19.41;96037.16;5029403;28;20022;-75
2022/05/20 07:28:56;;;;;;;6.15;3.60;;;;;;;29.35;19.24;96032.94;4995117;28;20036;-77
2022/05/20 07:31:23;;;;;;;9.40;3.72;;;;;;;29.03;19.49;96032.44;5011206;28;20030;-75
2022/05/20 07:33:50;;;;;;;9.63;3.70;;;;;;;28.94;20.21;96027.09;5028175;28;20029;-76
2022/05/20 07:36:15;;;;;;;4.50;3.45;;;;;;;28.81;19.95;96019.25;5003186;28;20049;-75
2022/05/20 07:38:41;;;;;;;8.65;4.07;;;;;;;28.55;19.80;96019.28;5027315;28;20029;-77
2022/05/20 07:41:06;;;;;;;12.98;3.42;;;;;;;28.29;20.21;96033.44;5011535;28;20041;-77
2022/05/20 07:43:32;;;;;;;9.95;3.22;;;;;;;28.19;20.50;96030.28;5028982;28;20456;-76
2022/05/20 07:45:58;;;;;;;20.13;4.00;;;;;;;28.07;20.85;96033.56;5027594;28;20083;-76
2022/05/20 07:48:23;;;;;;;11.25;2.97;;;;;;;27.99;20.96;96032.47;5019345;28;20037;-77
2022/05/20 07:50:52;;;;;;;20.67;3.28;;;;;;;28.02;21.17;96023.81;5010932;28;20026;-77
2022/05/20 07:53:20;;;;;;;8.48;3.25;;;;;;;27.90;21.49;96022.84;5042526;28;20045;-77
2022/05/20 07:55:55;;;;;;;9.98;3.03;;;;;;;27.73;21.04;96023.63;5025554;28;20034;-77
2022/05/20 07:58:22;;;;;;;8.13;2.92;;;;;;;27.80;20.72;96018.59;5026241;28;20041;-77
2022/05/20 08:00:48;;;;;;;9.02;2.85;;;;;;;27.75;20.88;96013.41;5025730;28;20050;-77
2022/05/20 08:04:52;;;;;;;5.55;2.85;;;;;;;27.40;21.22;96010.59;5027243;28;20037;-78
2022/05/20 08:05:59;;;;;;;11.90;3.78;;;;;;;27.03;21.54;96005.75;5026956;28;20504;-76
2022/05/20 08:08:24;;;;;;;16.35;3.10;;;;;;;27.00;21.38;96003.66;5002766;28;20026;-78
2022/05/20 08:10:49;;;;;;;10.95;2.58;;;;;;;26.80;21.57;96003.09;5028410;28;20026;-77
2022/05/20 08:13:17;;;;;;;6.15;1.95;;;;;;;26.62;19.80;96001.41;5030469;28;20559;-77
2022/05/20 08:15:42;;;;;;;5.68;2.35;;;;;;;26.45;20.95;95996.75;5031152;28;20034;-77
2022/05/20 08:18:08;;;;;;;10.43;2.92;;;;;;;26.44;21.49;95997.06;5031115;28;20400;-77
2022/05/20 08:20:33;;;;;;;10.32;2.92;;;;;;;26.33;21.25;95994.59;4988285;28;20025;-77
2022/05/20 08:23:00;;;;;;;8.70;2.72;;;;;;;26.20;21.80;95995.47;5029695;28;20382;-77
2022/05/20 08:25:26;;;;;;;8.95;2.25;;;;;;;26.08;21.13;95991.75;5013498;28;20025;-77
2022/05/20 08:27:52;;;;;;;3.47;1.73;;;;;;;26.03;21.33;95990.78;5013389;28;20036;-77
2022/05/20 08:30:20;;;;;;;5.15;2.17;;;;;;;25.98;21.42;95988.22;5012517;28;20044;-77
2022/05/20 08:32:46;;;;;;;6.57;2.05;;;;;;;25.89;21.20;95983.91;5029560;28;20581;-77
2022/05/20 08:35:11;;;;;;;8.10;1.95;;;;;;;25.88;20.90;95982.34;5030924;28;20029;-77
2022/05/20 08:37:42;;;;;;;10.95;2.50;;;;;;;25.86;21.07;95973.81;5013000;28;20048;-77
2022/05/20 08:40:09;;;;;;;5.78;2.15;;;;;;;25.64;20.54;95978.00;5030318;28;20021;-77
2022/05/20 08:42:34;;;;;;;12.88;3.20;;;;;;;25.39;21.09;95975.88;5029821;23;20050;-76
2022/05/20 08:45:01;;;;;;;6.25;1.73;;;;;;;25.32;21.59;95978.94;5020149;28;20456;-77
2022/05/20 08:47:48;;;;;;;4.25;1.80;;;;;;;25.35;21.11;95972.22;4999880;28;20072;-77
2022/05/20 08:50:20;;;;;;;6.70;1.80;;;;;;;25.22;21.55;95971.16;5001419;28;20094;-76
2022/05/20 08:52:46;;;;;;;9.75;2.20;;;;;;;25.17;21.99;95975.78;5002017;28;20060;-77
2022/05/20 08:55:11;;;;;;;6.15;2.60;;;;;;;25.13;22.13;95967.59;5000031;28;20565;-77
2022/05/20 08:57:55;;;;;;;3.60;1.77;;;;;;;25.11;22.27;95965.22;5000281;28;20100;-77
2022/05/20 09:00:21;;;;;;;3.67;2.13;;;;;;;24.97;21.57;95959.09;5000034;28;20037;-77
2022/05/20 09:02:46;;;;;;;2.75;1.90;;;;;;;25.01;22.35;95954.78;5000366;28;20505;-77
2022/05/20 09:05:24;;;;;;;12.73;2.55;;;;;;;25.05;23.65;95950.44;4967388;28;20483;-77
2022/05/20 09:08:03;;;;;;;7.47;2.17;;;;;;;25.02;22.32;95951.03;5002615;28;20157;-77
2022/05/20 09:10:42;;;;;;;4.65;1.85;;;;;;;25.07;22.56;95942.16;5008669;28;20060;-77
2022/05/20 09:16:29;;;;;;;3.60;2.00;;;;;;;25.18;23.81;95927.56;5000637;28;20045;-77
2022/05/20 09:19:14;;;;;;;3.90;2.10;;;;;;;25.22;22.57;95927.75;4995236;28;20038;-77
2022/05/20 09:21:44;;;;;;;4.93;1.52;;;;;;;25.20;23.08;95925.38;4995656;28;20273;-77
2022/05/20 09:24:21;;;;;;;4.97;1.98;;;;;;;25.12;21.83;95916.22;5003074;28;20026;-77
2022/05/20 09:26:51;;;;;;;5.40;2.30;;;;;;;24.96;22.61;95912.28;5005688;28;20060;-77
2022/05/20 09:29:26;;;;;;;6.97;1.95;;;;;;;24.88;20.94;95907.63;5023807;28;20501;-78
2022/05/20 09:31:58;;;;;;;8.07;1.80;;;;;;;24.84;21.13;95906.63;5008584;28;20096;-77
2022/05/20 09:34:26;;;;;;;5.78;1.85;;;;;;;24.88;22.00;95907.63;4967191;28;20030;-77
2022/05/20 09:37:00;;;;;;;3.38;1.40;;;;;;;24.92;21.27;95908.63;5001194;28;20457;-77
2022/05/20 09:39:31;;;;;;;5.60;1.20;;;;;;;24.92;19.78;95897.97;5000030;28;20560;-77
2022/05/20 09:42:00;;;;;;;4.57;1.63;;;;;;;24.88;18.94;95886.34;4999445;28;20128;-77
2022/05/20 09:44:33;;;;;;;3.03;1.60;;;;;;;24.85;19.71;95892.25;4998464;28;20045;-77
2022/05/20 09:46:59;;;;;;;3.80;1.20;;;;;;;24.80;17.51;95890.50;5015368;28;20034;-77
2022/05/20 09:49:31;;;;;;;4.35;1.30;;;;;;;24.69;17.24;95893.63;5008146;28;20042;-78
2022/05/20 09:51:58;;;;;;;5.53;1.73;;;;;;;24.63;18.28;95894.81;5011104;28;20045;-77
2022/05/20 09:54:34;;;;;;;4.55;1.17;;;;;;;24.61;17.58;95889.00;5002819;28;20398;-78
2022/05/20 09:57:21;;;;;;;3.05;1.48;;;;;;;24.62;18.50;95887.91;4992442;28;20045;-77
2022/05/20 09:59:49;;;;;;;2.63;1.25;;;;;;;24.61;18.70;95886.34;4998727;28;20041;-77
2022/05/20 10:02:34;;;;;;;4.38;2.00;;;;;;;24.55;19.10;95889.06;4998146;28;20096;-77
2022/05/20 10:05:15;;;;;;;7.43;1.63;;;;;;;24.56;18.75;95881.88;4998498;28;20109;-76
2022/05/20 10:08:08;;;;;;;10.05;1.63;;;;;;;24.56;19.23;95876.56;5000049;28;20042;-77
2022/05/20 10:10:45;;;;;;;5.72;1.65;;;;;;;24.61;18.54;95870.38;5001126;28;20058;-76
2022/05/20 10:13:35;;;;;;;2.45;1.20;;;;;;;24.61;17.81;95870.38;4983766;28;20042;-75
2022/05/20 10:16:19;;;;;;;2.67;1.40;;;;;;;24.49;18.48;95863.69;4998891;28;20038;-75
2022/05/20 10:18:53;;;;;;;7.05;1.52;;;;;;;24.41;17.92;95861.72;5000630;28;20038;-76
2022/05/20 10:21:21;;;;;;;5.78;1.92;;;;;;;24.20;17.38;95865.75;5000235;28;20113;-75
2022/05/20 10:24:09;;;;;;;5.20;1.40;;;;;;;24.15;18.93;95860.53;5000110;28;20486;-75
2022/05/20 10:27:14;;;;;;;3.45;1.58;;;;;;;24.16;18.64;95854.13;5000297;28;20037;-75
2022/05/20 10:32:39;;;;;;;4.50;1.38;;;;;;;24.14;18.71;95840.34;4999923;28;20563;-76
2022/05/20 10:35:09;;;;;;;5.30;1.67;;;;;;;24.02;17.70;95838.16;4982825;28;20038;-75
2022/05/20 10:37:40;;;;;;;2.03;1.65;;;;;;;23.83;18.99;95830.25;5006559;28;20610;-76
2022/05/20 10:40:15;;;;;;;3.95;1.38;;;;;;;23.82;17.88;95839.28;4999991;28;20501;-76
2022/05/20 10:43:06;;;;;;;5.85;1.58;;;;;;;23.83;18.32;95834.78;4998607;28;20089;-76
2022/05/20 10:48:48;;;;;;;3.35;2.13;;;;;;;23.65;16.59;95823.88;4999910;28;20510;-76
2022/05/20 10:51:17;;;;;;;2.75;1.30;;;;;;;23.58;16.42;95826.09;5000398;28;20532;-76
2022/05/20 10:53:51;;;;;;;3.75;1.52;;;;;;;23.62;16.95;95823.69;4999734;28;20034;-76
2022/05/20 10:56:41;;;;;;;9.98;2.33;;;;;;;23.65;16.76;95820.44;4999851;28;20034;-76
2022/05/20 10:59:09;;;;;;;5.47;2.70;;;;;;;23.67;16.42;95820.94;5002797;28;20057;-77
2022/05/20 11:01:46;;;;;;;10.80;2.55;;;;;;;23.73;16.57;95819.78;5000047;28;20072;-75
2022/05/20 11:04:32;;;;;;;3.85;2.95;;;;;;;23.73;16.42;95808.34;4998315;28;20038;-77
2022/05/20 11:07:43;;;;;;;7.95;2.50;;;;;;;23.75;17.17;95806.97;4999825;28;20394;-75
2022/05/20 11:10:20;;;;;;;8.48;3.13;;;;;;;23.74;16.50;95805.41;4975519;28;20076;-75
2022/05/20 11:12:58;;;;;;;11.30;2.83;;;;;;;23.75;17.28;95795.56;5000040;28;20038;-76
2022/05/20 11:15:58;;;;;;;8.25;5.28;;;;;;;23.74;17.39;95792.13;4998880;28;20042;-76
2022/05/20 11:18:32;;;;;;;5.40;2.53;;;;;;;23.74;17.13;95799.31;5006397;28;20034;-76
2022/05/20 11:20:58;;;;;;;2.30;2.08;;;;;;;23.74;17.18;95792.13;4998786;28;20080;-76
2022/05/20 11:23:48;;;;;;;3.70;2.25;;;;;;;23.75;17.59;95791.06;5000643;28;20489;-77
2022/05/20 11:26:22;;;;;;;10.02;2.30;;;;;;;23.76;17.62;95782.03;5014911;28;20060;-76
2022/05/20 11:29:29;;;;;;;4.68;2.63;;;;;;;23.78;17.82;95782.53;4999996;28;20039;-77
2022/05/20 11:32:02;;;;;;;11.45;2.40;;;;;;;23.77;17.80;95772.19;4991793;28;20058;-77
2022/05/20 11:35:04;;;;;;;12.55;2.70;;;;;;;23.80;18.63;95772.41;4998260;28;20030;-77
2022/05/20 11:38:09;;;;;;;7.28;2.00;;;;;;;23.83;17.67;95760.41;5003226;28;20151;-77
2022/05/20 11:40:50;;;;;;;9.70;3.45;;;;;;;23.84;18.01;95762.75;4996421;28;20132;-78
2022/05/20 11:43:36;;;;;;;6.25;2.42;;;;;;;23.87;17.07;95762.16;4990791;28;20049;-78
2022/05/20 11:46:31;;;;;;;4.40;3.38;;;;;;;23.89;17.25;95756.56;5014454;28;20029;-77
2022/05/20 11:49:25;;;;;;;8.63;2.80;;;;;;;23.73;17.42;95750.72;4995144;28;20034;-77
2022/05/20 11:52:10;;;;;;;3.72;2.70;;;;;;;23.78;17.35;95742.69;4995680;28;20041;-77
2022/05/20 11:54:54;;;;;;;9.75;2.97;;;;;;;23.87;18.79;95751.53;4989777;28;20457;-78
2022/05/20 11:57:22;;;;;;;3.80;2.80;;;;;;;23.52;17.54;95741.50;4996687;28;20061;-77
2022/05/20 11:59:47;;;;;;;6.63;2.90;;;;;;;23.53;17.64;95740.41;5000872;28;20113;-77
2022/05/20 12:02:17;;;;;;;5.68;2.85;;;;;;;23.54;18.09;95745.44;5004979;28;20030;-77
2022/05/20 12:04:42;;;;;;;5.43;2.72;;;;;;;23.57;17.20;95747.53;5010195;28;20030;-78
2022/05/20 12:07:10;;;;;;;2.53;2.30;;;;;;;23.63;17.05;95734.97;4985714;28;20060;-78
2022/05/20 12:09:53;;;;;;;3.50;2.30;;;;;;;23.74;17.08;95730.25;5025779;28;20034;-76
2022/05/20 12:12:29;;;;;;;8.07;2.15;;;;;;;23.82;16.95;95732.25;5008812;28;20038;-76
2022/05/20 12:15:13;;;;;;;5.07;2.70;;;;;;;23.85;17.91;95719.16;4993347;28;20129;-77
2022/05/20 12:17:49;;;;;;;4.57;2.20;;;;;;;23.90;18.20;95711.09;5002046;28;20489;-77